sensor_id;sensor_type;location;lat;lon;timestamp;P1;durP1;ratioP1;P2;durP2;ratioP2
21697;SDS011;11010;49.548;11.926;2023-02-10T00:01:17;19.73;;;8.30;;
21697;SDS011;11010;49.548;11.926;2023-02-10T00:03:46;24.07;;;9.37;;
21697;SDS011;11010;49.548;11.926;2023-02-10T00:06:14;23.50;;;9.20;;
21697;SDS011;11010;49.548;11.926;2023-02-10T00:08:42;22.43;;;8.77;;
21697;SDS011;11010;49.548;11.926;2023-02-10T00:11:10;21.40;;;8.53;;
21697;SDS011;11010;49.548;11.926;2023-02-10T00:13:38;23.40;;;9.20;;
21697;SDS011;11010;49.548;11.926;2023-02-10T00:16:06;22.30;;;8.87;;
21697;SDS011;11010;49.548;11.926;2023-02-10T00:18:34;20.97;;;8.73;;
21697;SDS011;11010;49.548;11.926;2023-02-10T00:21:12;24.93;;;9.87;;
21697;SDS011;11010;49.548;11.926;2023-02-10T00:23:40;23.80;;;9.80;;
21697;SDS011;11010;49.548;11.926;2023-02-10T00:26:09;22.43;;;9.27;;
21697;SDS011;11010;49.548;11.926;2023-02-10T00:28:40;25.53;;;10.20;;
21697;SDS011;11010;49.548;11.926;2023-02-10T00:31:11;23.50;;;8.97;;
21697;SDS011;11010;49.548;11.926;2023-02-10T00:33:39;24.97;;;9.77;;
21697;SDS011;11010;49.548;11.926;2023-02-10T00:36:08;22.23;;;9.80;;
21697;SDS011;11010;49.548;11.926;2023-02-10T00:38:36;23.47;;;9.30;;
21697;SDS011;11010;49.548;11.926;2023-02-10T00:41:04;25.73;;;10.20;;
21697;SDS011;11010;49.548;11.926;2023-02-10T00:43:32;21.77;;;9.17;;
21697;SDS011;11010;49.548;11.926;2023-02-10T00:46:00;27.07;;;10.17;;
21697;SDS011;11010;49.548;11.926;2023-02-10T00:48:27;25.77;;;10.30;;
21697;SDS011;11010;49.548;11.926;2023-02-10T00:50:55;23.63;;;10.03;;
21697;SDS011;11010;49.548;11.926;2023-02-10T00:53:22;27.03;;;10.27;;
21697;SDS011;11010;49.548;11.926;2023-02-10T00:55:49;25.20;;;9.50;;
21697;SDS011;11010;49.548;11.926;2023-02-10T00:58:17;25.33;;;10.03;;
21697;SDS011;11010;49.548;11.926;2023-02-10T01:00:44;26.70;;;9.60;;
21697;SDS011;11010;49.548;11.926;2023-02-10T01:03:12;25.17;;;10.10;;
21697;SDS011;11010;49.548;11.926;2023-02-10T01:05:40;25.30;;;9.67;;
21697;SDS011;11010;49.548;11.926;2023-02-10T01:08:07;24.40;;;10.17;;
21697;SDS011;11010;49.548;11.926;2023-02-10T01:10:35;24.83;;;9.87;;
21697;SDS011;11010;49.548;11.926;2023-02-10T01:13:03;24.60;;;10.03;;
21697;SDS011;11010;49.548;11.926;2023-02-10T01:15:31;21.20;;;8.87;;
21697;SDS011;11010;49.548;11.926;2023-02-10T01:18:00;25.13;;;9.23;;
21697;SDS011;11010;49.548;11.926;2023-02-10T01:20:27;25.77;;;10.07;;
21697;SDS011;11010;49.548;11.926;2023-02-10T01:22:55;27.70;;;10.87;;
21697;SDS011;11010;49.548;11.926;2023-02-10T01:25:23;26.97;;;10.80;;
21697;SDS011;11010;49.548;11.926;2023-02-10T01:27:51;25.77;;;10.37;;
21697;SDS011;11010;49.548;11.926;2023-02-10T01:30:18;25.13;;;10.67;;
21697;SDS011;11010;49.548;11.926;2023-02-10T01:32:46;26.10;;;10.63;;
21697;SDS011;11010;49.548;11.926;2023-02-10T01:35:13;26.77;;;10.63;;
21697;SDS011;11010;49.548;11.926;2023-02-10T01:37:40;26.23;;;10.23;;
21697;SDS011;11010;49.548;11.926;2023-02-10T01:40:08;24.33;;;9.63;;
21697;SDS011;11010;49.548;11.926;2023-02-10T01:42:35;28.07;;;10.23;;
21697;SDS011;11010;49.548;11.926;2023-02-10T01:45:11;25.67;;;10.37;;
21697;SDS011;11010;49.548;11.926;2023-02-10T01:47:40;23.87;;;9.97;;
21697;SDS011;11010;49.548;11.926;2023-02-10T01:50:09;25.20;;;10.20;;
21697;SDS011;11010;49.548;11.926;2023-02-10T01:52:37;26.53;;;10.70;;
21697;SDS011;11010;49.548;11.926;2023-02-10T01:55:07;26.23;;;10.37;;
21697;SDS011;11010;49.548;11.926;2023-02-10T01:57:35;23.60;;;9.70;;
21697;SDS011;11010;49.548;11.926;2023-02-10T02:00:05;25.77;;;10.20;;
21697;SDS011;11010;49.548;11.926;2023-02-10T02:02:38;27.80;;;10.53;;
21697;SDS011;11010;49.548;11.926;2023-02-10T02:05:14;27.43;;;10.77;;
21697;SDS011;11010;49.548;11.926;2023-02-10T02:07:44;28.17;;;10.23;;
21697;SDS011;11010;49.548;11.926;2023-02-10T02:10:11;23.63;;;9.90;;
21697;SDS011;11010;49.548;11.926;2023-02-10T02:12:59;27.63;;;9.73;;
21697;SDS011;11010;49.548;11.926;2023-02-10T02:15:34;25.83;;;10.23;;
21697;SDS011;11010;49.548;11.926;2023-02-10T02:18:12;26.30;;;10.63;;
21697;SDS011;11010;49.548;11.926;2023-02-10T02:23:42;26.33;;;10.43;;
21697;SDS011;11010;49.548;11.926;2023-02-10T02:28:50;29.33;;;11.00;;
21697;SDS011;11010;49.548;11.926;2023-02-10T02:34:00;27.27;;;10.13;;
21697;SDS011;11010;49.548;11.926;2023-02-10T02:36:36;29.37;;;10.67;;
21697;SDS011;11010;49.548;11.926;2023-02-10T02:39:04;26.53;;;10.20;;
21697;SDS011;11010;49.548;11.926;2023-02-10T02:41:33;24.53;;;9.90;;
21697;SDS011;11010;49.548;11.926;2023-02-10T02:44:03;26.17;;;10.20;;
21697;SDS011;11010;49.548;11.926;2023-02-10T02:49:13;28.00;;;10.33;;
21697;SDS011;11010;49.548;11.926;2023-02-10T02:54:25;25.77;;;10.57;;
21697;SDS011;11010;49.548;11.926;2023-02-10T03:01:58;24.17;;;10.93;;
21697;SDS011;11010;49.548;11.926;2023-02-10T03:04:28;27.30;;;11.50;;
21697;SDS011;11010;49.548;11.926;2023-02-10T03:06:59;25.07;;;10.33;;
21697;SDS011;11010;49.548;11.926;2023-02-10T03:09:27;28.90;;;10.97;;
21697;SDS011;11010;49.548;11.926;2023-02-10T03:11:55;26.27;;;11.37;;
21697;SDS011;11010;49.548;11.926;2023-02-10T03:14:22;28.47;;;11.33;;
21697;SDS011;11010;49.548;11.926;2023-02-10T03:16:50;28.90;;;10.87;;
21697;SDS011;11010;49.548;11.926;2023-02-10T03:19:18;27.63;;;10.73;;
21697;SDS011;11010;49.548;11.926;2023-02-10T03:21:46;28.27;;;11.10;;
21697;SDS011;11010;49.548;11.926;2023-02-10T03:24:13;26.57;;;11.37;;
21697;SDS011;11010;49.548;11.926;2023-02-10T03:26:43;30.33;;;11.50;;
21697;SDS011;11010;49.548;11.926;2023-02-10T03:29:12;29.10;;;11.70;;
21697;SDS011;11010;49.548;11.926;2023-02-10T03:31:39;26.47;;;10.23;;
21697;SDS011;11010;49.548;11.926;2023-02-10T03:34:07;28.90;;;11.70;;
21697;SDS011;11010;49.548;11.926;2023-02-10T03:36:35;31.50;;;11.20;;
21697;SDS011;11010;49.548;11.926;2023-02-10T03:39:02;29.87;;;11.40;;
21697;SDS011;11010;49.548;11.926;2023-02-10T03:41:30;28.83;;;11.87;;
21697;SDS011;11010;49.548;11.926;2023-02-10T03:43:58;28.73;;;11.50;;
21697;SDS011;11010;49.548;11.926;2023-02-10T03:46:25;27.03;;;11.07;;
21697;SDS011;11010;49.548;11.926;2023-02-10T03:48:53;28.17;;;11.33;;
21697;SDS011;11010;49.548;11.926;2023-02-10T03:51:20;28.10;;;11.23;;
21697;SDS011;11010;49.548;11.926;2023-02-10T03:53:48;28.97;;;10.80;;
21697;SDS011;11010;49.548;11.926;2023-02-10T03:56:15;28.70;;;11.23;;
21697;SDS011;11010;49.548;11.926;2023-02-10T03:58:43;29.43;;;10.87;;
21697;SDS011;11010;49.548;11.926;2023-02-10T04:01:12;31.10;;;11.60;;
21697;SDS011;11010;49.548;11.926;2023-02-10T04:03:39;28.63;;;11.40;;
21697;SDS011;11010;49.548;11.926;2023-02-10T04:06:07;32.17;;;12.07;;
21697;SDS011;11010;49.548;11.926;2023-02-10T04:19:25;28.03;;;10.80;;
21697;SDS011;11010;49.548;11.926;2023-02-10T04:21:53;30.83;;;11.97;;
21697;SDS011;11010;49.548;11.926;2023-02-10T04:24:21;30.93;;;11.63;;
21697;SDS011;11010;49.548;11.926;2023-02-10T04:26:49;31.77;;;12.57;;
21697;SDS011;11010;49.548;11.926;2023-02-10T04:29:16;29.10;;;11.63;;
21697;SDS011;11010;49.548;11.926;2023-02-10T04:31:44;36.37;;;11.93;;
21697;SDS011;11010;49.548;11.926;2023-02-10T04:34:12;27.37;;;10.97;;
21697;SDS011;11010;49.548;11.926;2023-02-10T04:36:40;29.20;;;11.50;;
21697;SDS011;11010;49.548;11.926;2023-02-10T04:39:07;30.30;;;11.57;;
21697;SDS011;11010;49.548;11.926;2023-02-10T04:41:35;29.37;;;11.37;;
21697;SDS011;11010;49.548;11.926;2023-02-10T04:44:04;31.37;;;12.43;;
21697;SDS011;11010;49.548;11.926;2023-02-10T04:46:32;29.73;;;11.93;;
21697;SDS011;11010;49.548;11.926;2023-02-10T04:49:00;28.33;;;11.10;;
21697;SDS011;11010;49.548;11.926;2023-02-10T04:51:28;29.73;;;11.47;;
21697;SDS011;11010;49.548;11.926;2023-02-10T04:53:55;31.93;;;12.00;;
21697;SDS011;11010;49.548;11.926;2023-02-10T04:56:23;32.27;;;13.00;;
21697;SDS011;11010;49.548;11.926;2023-02-10T04:58:51;34.87;;;12.07;;
21697;SDS011;11010;49.548;11.926;2023-02-10T05:01:18;33.53;;;12.80;;
21697;SDS011;11010;49.548;11.926;2023-02-10T05:03:46;32.30;;;12.27;;
21697;SDS011;11010;49.548;11.926;2023-02-10T05:06:14;32.20;;;11.53;;
21697;SDS011;11010;49.548;11.926;2023-02-10T05:08:43;32.03;;;12.20;;
21697;SDS011;11010;49.548;11.926;2023-02-10T05:11:12;29.80;;;11.40;;
21697;SDS011;11010;49.548;11.926;2023-02-10T05:13:40;28.93;;;11.90;;
21697;SDS011;11010;49.548;11.926;2023-02-10T05:16:08;29.53;;;12.33;;
21697;SDS011;11010;49.548;11.926;2023-02-10T05:18:37;31.60;;;12.17;;
21697;SDS011;11010;49.548;11.926;2023-02-10T05:21:06;32.90;;;12.40;;
21697;SDS011;11010;49.548;11.926;2023-02-10T05:23:34;31.00;;;12.07;;
21697;SDS011;11010;49.548;11.926;2023-02-10T05:26:02;31.97;;;12.17;;
21697;SDS011;11010;49.548;11.926;2023-02-10T05:28:30;31.57;;;11.83;;
21697;SDS011;11010;49.548;11.926;2023-02-10T05:31:00;34.37;;;12.83;;
21697;SDS011;11010;49.548;11.926;2023-02-10T05:33:30;34.10;;;11.97;;
21697;SDS011;11010;49.548;11.926;2023-02-10T05:35:58;31.80;;;11.97;;
21697;SDS011;11010;49.548;11.926;2023-02-10T05:38:25;31.90;;;12.63;;
21697;SDS011;11010;49.548;11.926;2023-02-10T05:40:53;32.70;;;12.13;;
21697;SDS011;11010;49.548;11.926;2023-02-10T05:43:21;33.30;;;12.13;;
21697;SDS011;11010;49.548;11.926;2023-02-10T05:45:48;31.37;;;12.20;;
21697;SDS011;11010;49.548;11.926;2023-02-10T05:48:17;31.10;;;11.93;;
21697;SDS011;11010;49.548;11.926;2023-02-10T05:50:44;31.50;;;12.63;;
21697;SDS011;11010;49.548;11.926;2023-02-10T05:53:16;31.93;;;12.37;;
21697;SDS011;11010;49.548;11.926;2023-02-10T05:55:44;31.27;;;11.77;;
21697;SDS011;11010;49.548;11.926;2023-02-10T05:58:13;29.47;;;11.53;;
21697;SDS011;11010;49.548;11.926;2023-02-10T06:00:40;31.57;;;12.23;;
21697;SDS011;11010;49.548;11.926;2023-02-10T06:03:08;30.07;;;11.60;;
21697;SDS011;11010;49.548;11.926;2023-02-10T06:05:36;31.50;;;11.70;;
21697;SDS011;11010;49.548;11.926;2023-02-10T06:08:05;33.80;;;12.20;;
21697;SDS011;11010;49.548;11.926;2023-02-10T06:10:33;32.80;;;12.13;;
21697;SDS011;11010;49.548;11.926;2023-02-10T06:13:01;34.27;;;12.37;;
21697;SDS011;11010;49.548;11.926;2023-02-10T06:15:28;29.40;;;11.83;;
21697;SDS011;11010;49.548;11.926;2023-02-10T06:17:56;34.40;;;12.77;;
21697;SDS011;11010;49.548;11.926;2023-02-10T06:20:24;28.77;;;11.67;;
21697;SDS011;11010;49.548;11.926;2023-02-10T06:22:52;30.30;;;12.07;;
21697;SDS011;11010;49.548;11.926;2023-02-10T06:25:19;27.57;;;11.90;;
21697;SDS011;11010;49.548;11.926;2023-02-10T06:27:47;28.30;;;11.53;;
21697;SDS011;11010;49.548;11.926;2023-02-10T06:30:15;27.60;;;11.13;;
21697;SDS011;11010;49.548;11.926;2023-02-10T06:32:42;31.23;;;11.80;;
21697;SDS011;11010;49.548;11.926;2023-02-10T06:35:10;30.80;;;11.43;;
21697;SDS011;11010;49.548;11.926;2023-02-10T06:37:38;28.63;;;11.47;;
21697;SDS011;11010;49.548;11.926;2023-02-10T06:40:06;29.53;;;11.20;;
21697;SDS011;11010;49.548;11.926;2023-02-10T06:42:34;30.53;;;11.60;;
21697;SDS011;11010;49.548;11.926;2023-02-10T06:45:01;29.03;;;12.17;;
21697;SDS011;11010;49.548;11.926;2023-02-10T06:47:29;31.70;;;12.43;;
21697;SDS011;11010;49.548;11.926;2023-02-10T06:49:57;30.53;;;10.83;;
21697;SDS011;11010;49.548;11.926;2023-02-10T06:52:25;27.63;;;10.93;;
21697;SDS011;11010;49.548;11.926;2023-02-10T06:54:53;30.57;;;12.13;;
21697;SDS011;11010;49.548;11.926;2023-02-10T06:57:20;31.77;;;12.00;;
21697;SDS011;11010;49.548;11.926;2023-02-10T06:59:48;29.97;;;11.43;;
21697;SDS011;11010;49.548;11.926;2023-02-10T07:02:16;33.57;;;13.97;;
21697;SDS011;11010;49.548;11.926;2023-02-10T07:04:44;36.03;;;14.03;;
21697;SDS011;11010;49.548;11.926;2023-02-10T07:07:11;32.97;;;11.63;;
21697;SDS011;11010;49.548;11.926;2023-02-10T07:09:39;34.40;;;13.33;;
21697;SDS011;11010;49.548;11.926;2023-02-10T07:12:07;36.60;;;13.13;;
21697;SDS011;11010;49.548;11.926;2023-02-10T07:14:34;34.20;;;13.20;;
21697;SDS011;11010;49.548;11.926;2023-02-10T07:17:02;36.53;;;13.53;;
21697;SDS011;11010;49.548;11.926;2023-02-10T07:19:30;34.23;;;13.20;;
21697;SDS011;11010;49.548;11.926;2023-02-10T07:21:58;34.30;;;12.90;;
21697;SDS011;11010;49.548;11.926;2023-02-10T07:24:28;34.93;;;12.53;;
21697;SDS011;11010;49.548;11.926;2023-02-10T07:26:56;34.50;;;13.17;;
21697;SDS011;11010;49.548;11.926;2023-02-10T07:29:23;34.93;;;13.33;;
21697;SDS011;11010;49.548;11.926;2023-02-10T07:31:51;34.87;;;13.37;;
21697;SDS011;11010;49.548;11.926;2023-02-10T07:34:19;34.37;;;13.60;;
21697;SDS011;11010;49.548;11.926;2023-02-10T07:36:47;35.83;;;13.43;;
21697;SDS011;11010;49.548;11.926;2023-02-10T07:39:20;36.13;;;13.77;;
21697;SDS011;11010;49.548;11.926;2023-02-10T07:41:48;36.63;;;14.17;;
21697;SDS011;11010;49.548;11.926;2023-02-10T07:44:19;37.20;;;13.33;;
21697;SDS011;11010;49.548;11.926;2023-02-10T07:46:47;35.70;;;14.20;;
21697;SDS011;11010;49.548;11.926;2023-02-10T07:49:15;39.83;;;15.23;;
21697;SDS011;11010;49.548;11.926;2023-02-10T07:51:43;39.83;;;14.87;;
21697;SDS011;11010;49.548;11.926;2023-02-10T07:54:10;43.07;;;16.27;;
21697;SDS011;11010;49.548;11.926;2023-02-10T07:56:38;41.40;;;15.23;;
21697;SDS011;11010;49.548;11.926;2023-02-10T07:59:06;43.03;;;15.53;;
21697;SDS011;11010;49.548;11.926;2023-02-10T08:01:34;44.37;;;17.20;;
21697;SDS011;11010;49.548;11.926;2023-02-10T08:04:07;39.60;;;16.57;;
21697;SDS011;11010;49.548;11.926;2023-02-10T08:06:35;40.00;;;16.23;;
21697;SDS011;11010;49.548;11.926;2023-02-10T08:09:03;41.70;;;16.33;;
21697;SDS011;11010;49.548;11.926;2023-02-10T08:11:31;41.17;;;15.73;;
21697;SDS011;11010;49.548;11.926;2023-02-10T08:14:00;40.77;;;16.00;;
21697;SDS011;11010;49.548;11.926;2023-02-10T08:16:28;41.07;;;17.07;;
21697;SDS011;11010;49.548;11.926;2023-02-10T08:18:56;42.03;;;17.47;;
21697;SDS011;11010;49.548;11.926;2023-02-10T08:21:24;45.43;;;17.23;;
21697;SDS011;11010;49.548;11.926;2023-02-10T08:23:53;41.70;;;16.43;;
21697;SDS011;11010;49.548;11.926;2023-02-10T08:26:21;39.83;;;16.30;;
21697;SDS011;11010;49.548;11.926;2023-02-10T08:28:49;41.97;;;16.00;;
21697;SDS011;11010;49.548;11.926;2023-02-10T08:31:17;42.90;;;17.47;;
21697;SDS011;11010;49.548;11.926;2023-02-10T08:33:45;42.90;;;17.50;;
21697;SDS011;11010;49.548;11.926;2023-02-10T08:36:14;42.57;;;15.60;;
21697;SDS011;11010;49.548;11.926;2023-02-10T08:38:42;45.73;;;17.50;;
21697;SDS011;11010;49.548;11.926;2023-02-10T08:41:10;41.87;;;16.83;;
21697;SDS011;11010;49.548;11.926;2023-02-10T08:43:38;40.80;;;16.63;;
21697;SDS011;11010;49.548;11.926;2023-02-10T08:46:06;43.50;;;16.40;;
21697;SDS011;11010;49.548;11.926;2023-02-10T08:48:34;41.00;;;16.10;;
21697;SDS011;11010;49.548;11.926;2023-02-10T08:51:05;41.93;;;16.50;;
21697;SDS011;11010;49.548;11.926;2023-02-10T08:53:33;43.50;;;17.57;;
21697;SDS011;11010;49.548;11.926;2023-02-10T08:56:05;42.83;;;17.20;;
21697;SDS011;11010;49.548;11.926;2023-02-10T08:58:34;44.10;;;16.90;;
21697;SDS011;11010;49.548;11.926;2023-02-10T09:01:12;42.40;;;16.77;;
21697;SDS011;11010;49.548;11.926;2023-02-10T09:03:40;42.10;;;17.13;;
21697;SDS011;11010;49.548;11.926;2023-02-10T09:06:28;37.67;;;17.10;;
21697;SDS011;11010;49.548;11.926;2023-02-10T09:08:56;40.90;;;16.00;;
21697;SDS011;11010;49.548;11.926;2023-02-10T09:11:26;46.00;;;18.47;;
21697;SDS011;11010;49.548;11.926;2023-02-10T09:13:54;41.27;;;16.93;;
21697;SDS011;11010;49.548;11.926;2023-02-10T09:16:23;42.73;;;18.57;;
21697;SDS011;11010;49.548;11.926;2023-02-10T09:18:51;44.30;;;17.53;;
21697;SDS011;11010;49.548;11.926;2023-02-10T09:21:18;46.07;;;17.20;;
21697;SDS011;11010;49.548;11.926;2023-02-10T09:23:46;44.73;;;17.47;;
21697;SDS011;11010;49.548;11.926;2023-02-10T09:26:15;46.50;;;19.23;;
21697;SDS011;11010;49.548;11.926;2023-02-10T09:28:43;46.30;;;18.10;;
21697;SDS011;11010;49.548;11.926;2023-02-10T09:31:11;41.70;;;16.40;;
21697;SDS011;11010;49.548;11.926;2023-02-10T09:33:40;45.30;;;18.13;;
21697;SDS011;11010;49.548;11.926;2023-02-10T09:36:09;44.67;;;19.03;;
21697;SDS011;11010;49.548;11.926;2023-02-10T09:38:39;47.90;;;18.80;;
21697;SDS011;11010;49.548;11.926;2023-02-10T09:41:12;48.80;;;18.47;;
21697;SDS011;11010;49.548;11.926;2023-02-10T09:43:45;45.97;;;18.40;;
21697;SDS011;11010;49.548;11.926;2023-02-10T09:46:22;44.50;;;18.00;;
21697;SDS011;11010;49.548;11.926;2023-02-10T09:48:57;42.57;;;18.10;;
21697;SDS011;11010;49.548;11.926;2023-02-10T09:54:01;45.97;;;18.03;;
21697;SDS011;11010;49.548;11.926;2023-02-10T09:56:29;43.83;;;17.23;;
21697;SDS011;11010;49.548;11.926;2023-02-10T09:58:57;47.10;;;19.03;;
21697;SDS011;11010;49.548;11.926;2023-02-10T10:02:16;44.80;;;18.50;;
21697;SDS011;11010;49.548;11.926;2023-02-10T10:04:17;43.73;;;18.00;;
21697;SDS011;11010;49.548;11.926;2023-02-10T10:06:49;43.10;;;16.70;;
21697;SDS011;11010;49.548;11.926;2023-02-10T10:09:21;41.17;;;16.87;;
21697;SDS011;11010;49.548;11.926;2023-02-10T10:11:51;42.80;;;18.27;;
21697;SDS011;11010;49.548;11.926;2023-02-10T10:17:01;42.87;;;17.60;;
21697;SDS011;11010;49.548;11.926;2023-02-10T10:29:54;35.43;;;14.67;;
21697;SDS011;11010;49.548;11.926;2023-02-10T10:32:26;42.37;;;17.57;;
21697;SDS011;11010;49.548;11.926;2023-02-10T10:34:58;42.90;;;18.50;;
21697;SDS011;11010;49.548;11.926;2023-02-10T10:37:26;40.77;;;16.27;;
21697;SDS011;11010;49.548;11.926;2023-02-10T10:39:55;44.17;;;17.80;;
21697;SDS011;11010;49.548;11.926;2023-02-10T10:44:54;43.10;;;17.97;;
21697;SDS011;11010;49.548;11.926;2023-02-10T10:47:31;45.10;;;16.77;;
21697;SDS011;11010;49.548;11.926;2023-02-10T10:50:02;41.37;;;15.87;;
21697;SDS011;11010;49.548;11.926;2023-02-10T10:52:31;43.50;;;17.43;;
21697;SDS011;11010;49.548;11.926;2023-02-10T10:55:02;44.40;;;17.50;;
21697;SDS011;11010;49.548;11.926;2023-02-10T10:57:30;41.17;;;17.50;;
21697;SDS011;11010;49.548;11.926;2023-02-10T11:00:01;39.30;;;17.33;;
21697;SDS011;11010;49.548;11.926;2023-02-10T11:02:29;31.47;;;11.70;;
21697;SDS011;11010;49.548;11.926;2023-02-10T11:05:11;16.17;;;6.87;;
21697;SDS011;11010;49.548;11.926;2023-02-10T11:07:42;45.13;;;17.73;;
21697;SDS011;11010;49.548;11.926;2023-02-10T11:12:54;39.93;;;17.07;;
21697;SDS011;11010;49.548;11.926;2023-02-10T11:17:53;40.47;;;16.33;;
21697;SDS011;11010;49.548;11.926;2023-02-10T11:20:26;42.30;;;17.83;;
21697;SDS011;11010;49.548;11.926;2023-02-10T11:25:35;39.37;;;17.77;;
21697;SDS011;11010;49.548;11.926;2023-02-10T11:28:05;40.93;;;17.07;;
21697;SDS011;11010;49.548;11.926;2023-02-10T11:30:35;43.80;;;17.67;;
21697;SDS011;11010;49.548;11.926;2023-02-10T11:33:05;47.83;;;18.20;;
21697;SDS011;11010;49.548;11.926;2023-02-10T11:35:33;42.83;;;18.53;;
21697;SDS011;11010;49.548;11.926;2023-02-10T11:38:03;42.57;;;18.33;;
21697;SDS011;11010;49.548;11.926;2023-02-10T11:40:46;45.53;;;18.80;;
21697;SDS011;11010;49.548;11.926;2023-02-10T11:43:16;36.83;;;15.43;;
21697;SDS011;11010;49.548;11.926;2023-02-10T11:45:51;40.60;;;16.60;;
21697;SDS011;11010;49.548;11.926;2023-02-10T11:48:23;41.07;;;15.53;;
21697;SDS011;11010;49.548;11.926;2023-02-10T11:53:51;41.10;;;15.70;;
21697;SDS011;11010;49.548;11.926;2023-02-10T12:06:33;39.50;;;17.10;;
21697;SDS011;11010;49.548;11.926;2023-02-10T12:11:35;40.53;;;17.90;;
21697;SDS011;11010;49.548;11.926;2023-02-10T12:17:04;40.27;;;17.03;;
21697;SDS011;11010;49.548;11.926;2023-02-10T12:19:45;42.43;;;17.17;;
21697;SDS011;11010;49.548;11.926;2023-02-10T12:22:23;43.67;;;17.93;;
21697;SDS011;11010;49.548;11.926;2023-02-10T12:27:51;40.03;;;17.33;;
21697;SDS011;11010;49.548;11.926;2023-02-10T12:30:34;44.60;;;17.20;;
21697;SDS011;11010;49.548;11.926;2023-02-10T12:53:50;40.10;;;17.67;;
21697;SDS011;11010;49.548;11.926;2023-02-10T12:56:29;43.77;;;18.30;;
21697;SDS011;11010;49.548;11.926;2023-02-10T12:59:00;40.63;;;16.53;;
21697;SDS011;11010;49.548;11.926;2023-02-10T13:01:30;38.83;;;16.97;;
21697;SDS011;11010;49.548;11.926;2023-02-10T13:04:18;42.17;;;17.30;;
21697;SDS011;11010;49.548;11.926;2023-02-10T13:06:54;41.30;;;18.30;;
21697;SDS011;11010;49.548;11.926;2023-02-10T13:09:26;37.23;;;15.93;;
21697;SDS011;11010;49.548;11.926;2023-02-10T13:14:29;38.60;;;15.73;;
21697;SDS011;11010;49.548;11.926;2023-02-10T13:16:58;34.47;;;13.53;;
21697;SDS011;11010;49.548;11.926;2023-02-10T13:22:02;42.33;;;17.87;;
21697;SDS011;11010;49.548;11.926;2023-02-10T13:29:56;43.07;;;17.13;;
21697;SDS011;11010;49.548;11.926;2023-02-10T13:34:59;40.10;;;17.27;;
21697;SDS011;11010;49.548;11.926;2023-02-10T13:39:56;42.67;;;17.93;;
21697;SDS011;11010;49.548;11.926;2023-02-10T13:42:26;37.27;;;16.53;;
21697;SDS011;11010;49.548;11.926;2023-02-10T13:45:03;40.63;;;17.20;;
21697;SDS011;11010;49.548;11.926;2023-02-10T13:50:21;39.63;;;17.83;;
21697;SDS011;11010;49.548;11.926;2023-02-10T13:52:49;39.67;;;17.37;;
21697;SDS011;11010;49.548;11.926;2023-02-10T14:00:46;44.97;;;18.23;;
21697;SDS011;11010;49.548;11.926;2023-02-10T14:08:35;38.93;;;16.00;;
21697;SDS011;11010;49.548;11.926;2023-02-10T14:13:57;37.37;;;17.07;;
21697;SDS011;11010;49.548;11.926;2023-02-10T14:16:35;37.63;;;16.33;;
21697;SDS011;11010;49.548;11.926;2023-02-10T14:19:05;40.13;;;17.17;;
21697;SDS011;11010;49.548;11.926;2023-02-10T14:21:42;42.13;;;17.70;;
21697;SDS011;11010;49.548;11.926;2023-02-10T14:24:12;43.83;;;18.67;;
21697;SDS011;11010;49.548;11.926;2023-02-10T14:26:52;37.53;;;15.90;;
21697;SDS011;11010;49.548;11.926;2023-02-10T14:29:21;40.07;;;16.87;;
21697;SDS011;11010;49.548;11.926;2023-02-10T14:31:55;37.43;;;17.00;;
21697;SDS011;11010;49.548;11.926;2023-02-10T14:39:22;38.23;;;17.33;;
21697;SDS011;11010;49.548;11.926;2023-02-10T14:41:51;38.97;;;16.53;;
21697;SDS011;11010;49.548;11.926;2023-02-10T14:44:37;38.33;;;16.73;;
21697;SDS011;11010;49.548;11.926;2023-02-10T14:47:06;40.13;;;15.83;;
21697;SDS011;11010;49.548;11.926;2023-02-10T14:49:34;36.93;;;16.27;;
21697;SDS011;11010;49.548;11.926;2023-02-10T14:52:03;39.03;;;16.60;;
21697;SDS011;11010;49.548;11.926;2023-02-10T14:54:35;33.73;;;15.57;;
21697;SDS011;11010;49.548;11.926;2023-02-10T14:57:10;35.13;;;15.30;;
21697;SDS011;11010;49.548;11.926;2023-02-10T14:59:39;39.47;;;15.93;;
21697;SDS011;11010;49.548;11.926;2023-02-10T15:02:14;36.63;;;16.07;;
21697;SDS011;11010;49.548;11.926;2023-02-10T15:04:44;37.57;;;15.63;;
21697;SDS011;11010;49.548;11.926;2023-02-10T15:07:22;33.57;;;14.83;;
21697;SDS011;11010;49.548;11.926;2023-02-10T15:09:52;36.70;;;15.73;;
21697;SDS011;11010;49.548;11.926;2023-02-10T15:12:21;37.73;;;15.90;;
21697;SDS011;11010;49.548;11.926;2023-02-10T15:15:05;34.00;;;14.57;;
21697;SDS011;11010;49.548;11.926;2023-02-10T15:17:45;36.20;;;16.20;;
21697;SDS011;11010;49.548;11.926;2023-02-10T15:25:30;34.53;;;15.60;;
21697;SDS011;11010;49.548;11.926;2023-02-10T15:33:27;37.63;;;15.13;;
21697;SDS011;11010;49.548;11.926;2023-02-10T15:38:30;34.43;;;15.20;;
21697;SDS011;11010;49.548;11.926;2023-02-10T15:40:58;36.27;;;15.10;;
21697;SDS011;11010;49.548;11.926;2023-02-10T15:43:27;36.30;;;15.80;;
21697;SDS011;11010;49.548;11.926;2023-02-10T15:46:06;32.53;;;14.00;;
21697;SDS011;11010;49.548;11.926;2023-02-10T15:48:34;41.13;;;16.40;;
21697;SDS011;11010;49.548;11.926;2023-02-10T15:51:04;39.93;;;15.47;;
21697;SDS011;11010;49.548;11.926;2023-02-10T15:53:32;34.67;;;14.83;;
21697;SDS011;11010;49.548;11.926;2023-02-10T15:56:00;31.83;;;14.43;;
21697;SDS011;11010;49.548;11.926;2023-02-10T15:58:28;33.97;;;14.90;;
21697;SDS011;11010;49.548;11.926;2023-02-10T16:00:56;34.73;;;14.50;;
21697;SDS011;11010;49.548;11.926;2023-02-10T16:03:23;34.30;;;14.57;;
21697;SDS011;11010;49.548;11.926;2023-02-10T16:05:51;33.57;;;14.70;;
21697;SDS011;11010;49.548;11.926;2023-02-10T16:08:26;33.60;;;14.73;;
21697;SDS011;11010;49.548;11.926;2023-02-10T16:10:54;33.10;;;14.63;;
21697;SDS011;11010;49.548;11.926;2023-02-10T16:13:27;32.80;;;14.13;;
21697;SDS011;11010;49.548;11.926;2023-02-10T16:15:55;31.97;;;13.90;;
21697;SDS011;11010;49.548;11.926;2023-02-10T16:18:24;32.27;;;14.40;;
21697;SDS011;11010;49.548;11.926;2023-02-10T16:20:52;35.17;;;14.57;;
21697;SDS011;11010;49.548;11.926;2023-02-10T16:23:20;31.60;;;14.50;;
21697;SDS011;11010;49.548;11.926;2023-02-10T16:25:48;32.50;;;14.67;;
21697;SDS011;11010;49.548;11.926;2023-02-10T16:28:18;28.93;;;13.13;;
21697;SDS011;11010;49.548;11.926;2023-02-10T16:30:46;31.70;;;14.60;;
21697;SDS011;11010;49.548;11.926;2023-02-10T16:33:14;29.33;;;13.20;;
21697;SDS011;11010;49.548;11.926;2023-02-10T16:35:41;32.13;;;13.90;;
21697;SDS011;11010;49.548;11.926;2023-02-10T16:38:10;31.13;;;12.63;;
21697;SDS011;11010;49.548;11.926;2023-02-10T16:40:45;29.27;;;12.73;;
21697;SDS011;11010;49.548;11.926;2023-02-10T16:43:13;29.53;;;12.83;;
21697;SDS011;11010;49.548;11.926;2023-02-10T16:45:40;30.30;;;12.53;;
21697;SDS011;11010;49.548;11.926;2023-02-10T16:48:08;28.33;;;12.23;;
21697;SDS011;11010;49.548;11.926;2023-02-10T16:50:40;28.17;;;12.37;;
21697;SDS011;11010;49.548;11.926;2023-02-10T16:53:08;26.47;;;11.97;;